sensor_id;sensor_type;location;lat;lon;timestamp;temperature;humidity
34147;DHT22;20423;49.448;9.056;2022-10-19T00:01:11;10.70;99.90
34147;DHT22;20423;49.448;9.056;2022-10-19T00:03:37;10.70;99.90
34147;DHT22;20423;49.448;9.056;2022-10-19T00:06:26;10.70;99.90
34147;DHT22;20423;49.448;9.056;2022-10-19T00:08:55;10.70;99.90
34147;DHT22;20423;49.448;9.056;2022-10-19T00:11:21;10.90;99.90
34147;DHT22;20423;49.448;9.056;2022-10-19T00:13:48;10.90;99.90
34147;DHT22;20423;49.448;9.056;2022-10-19T00:16:15;10.90;99.90
34147;DHT22;20423;49.448;9.056;2022-10-19T00:18:42;11.10;99.90
34147;DHT22;20423;49.448;9.056;2022-10-19T00:21:11;11.10;99.90
34147;DHT22;20423;49.448;9.056;2022-10-19T00:23:37;11.10;99.90
34147;DHT22;20423;49.448;9.056;2022-10-19T00:26:02;11.10;99.90
34147;DHT22;20423;49.448;9.056;2022-10-19T00:28:28;11.20;99.90
34147;DHT22;20423;49.448;9.056;2022-10-19T00:30:54;11.20;99.90
34147;DHT22;20423;49.448;9.056;2022-10-19T00:33:20;11.20;99.90
34147;DHT22;20423;49.448;9.056;2022-10-19T00:35:51;11.20;99.90
34147;DHT22;20423;49.448;9.056;2022-10-19T00:38:18;11.20;99.90
34147;DHT22;20423;49.448;9.056;2022-10-19T00:40:44;11.20;99.90
34147;DHT22;20423;49.448;9.056;2022-10-19T00:43:30;11.30;99.90
34147;DHT22;20423;49.448;9.056;2022-10-19T00:45:56;11.30;99.90
34147;DHT22;20423;49.448;9.056;2022-10-19T00:52:12;11.40;99.90
34147;DHT22;20423;49.448;9.056;2022-10-19T00:54:40;11.40;99.90
34147;DHT22;20423;49.448;9.056;2022-10-19T00:57:06;11.40;99.90
34147;DHT22;20423;49.448;9.056;2022-10-19T00:59:33;11.40;99.90
34147;DHT22;20423;49.448;9.056;2022-10-19T01:02:00;11.40;99.90
34147;DHT22;20423;49.448;9.056;2022-10-19T01:04:28;11.40;99.90
34147;DHT22;20423;49.448;9.056;2022-10-19T01:11:09;11.40;99.90
34147;DHT22;20423;49.448;9.056;2022-10-19T01:16:36;11.40;99.90
34147;DHT22;20423;49.448;9.056;2022-10-19T01:32:50;11.20;99.90
34147;DHT22;20423;49.448;9.056;2022-10-19T01:43:23;11.00;99.90
34147;DHT22;20423;49.448;9.056;2022-10-19T01:46:02;10.90;99.90
34147;DHT22;20423;49.448;9.056;2022-10-19T01:48:34;11.00;99.90
34147;DHT22;20423;49.448;9.056;2022-10-19T01:51:16;11.00;99.90
34147;DHT22;20423;49.448;9.056;2022-10-19T01:53:46;11.10;99.90
34147;DHT22;20423;49.448;9.056;2022-10-19T01:56:14;11.10;99.90
34147;DHT22;20423;49.448;9.056;2022-10-19T01:59:12;11.00;99.90
34147;DHT22;20423;49.448;9.056;2022-10-19T02:01:43;11.00;99.90
34147;DHT22;20423;49.448;9.056;2022-10-19T02:04:12;11.00;99.90
34147;DHT22;20423;49.448;9.056;2022-10-19T02:06:40;11.00;99.90
34147;DHT22;20423;49.448;9.056;2022-10-19T02:09:06;10.80;99.90
34147;DHT22;20423;49.448;9.056;2022-10-19T02:11:32;10.90;99.90
34147;DHT22;20423;49.448;9.056;2022-10-19T02:14:07;10.90;99.90
34147;DHT22;20423;49.448;9.056;2022-10-19T02:16:39;11.00;99.90
34147;DHT22;20423;49.448;9.056;2022-10-19T02:19:07;11.10;99.90
34147;DHT22;20423;49.448;9.056;2022-10-19T02:21:34;11.10;99.90
34147;DHT22;20423;49.448;9.056;2022-10-19T02:24:00;11.10;99.90
34147;DHT22;20423;49.448;9.056;2022-10-19T02:26:26;11.10;99.90
34147;DHT22;20423;49.448;9.056;2022-10-19T02:28:54;11.10;99.90
34147;DHT22;20423;49.448;9.056;2022-10-19T02:31:20;11.10;99.90
34147;DHT22;20423;49.448;9.056;2022-10-19T02:33:46;11.20;99.90
34147;DHT22;20423;49.448;9.056;2022-10-19T02:36:12;11.20;99.90
34147;DHT22;20423;49.448;9.056;2022-10-19T02:38:39;11.10;99.90
34147;DHT22;20423;49.448;9.056;2022-10-19T02:41:06;11.00;99.90
34147;DHT22;20423;49.448;9.056;2022-10-19T02:43:37;11.00;99.90
34147;DHT22;20423;49.448;9.056;2022-10-19T02:49:01;10.80;99.90
34147;DHT22;20423;49.448;9.056;2022-10-19T02:51:47;10.70;99.90
34147;DHT22;20423;49.448;9.056;2022-10-19T02:54:19;10.70;99.90
34147;DHT22;20423;49.448;9.056;2022-10-19T02:56:44;10.70;99.90
34147;DHT22;20423;49.448;9.056;2022-10-19T02:59:10;10.60;99.90
34147;DHT22;20423;49.448;9.056;2022-10-19T03:01:36;10.60;99.90
34147;DHT22;20423;49.448;9.056;2022-10-19T03:04:14;10.50;99.90
34147;DHT22;20423;49.448;9.056;2022-10-19T03:06:40;10.60;99.90
34147;DHT22;20423;49.448;9.056;2022-10-19T03:09:06;10.50;99.90
34147;DHT22;20423;49.448;9.056;2022-10-19T03:11:31;10.50;99.90
34147;DHT22;20423;49.448;9.056;2022-10-19T03:13:57;10.50;99.90
34147;DHT22;20423;49.448;9.056;2022-10-19T03:16:38;10.40;99.90
34147;DHT22;20423;49.448;9.056;2022-10-19T03:19:04;10.50;99.90
34147;DHT22;20423;49.448;9.056;2022-10-19T03:21:29;10.40;99.90
34147;DHT22;20423;49.448;9.056;2022-10-19T03:23:55;10.30;99.90
34147;DHT22;20423;49.448;9.056;2022-10-19T03:26:20;10.20;99.90
34147;DHT22;20423;49.448;9.056;2022-10-19T03:29:20;10.20;99.90
34147;DHT22;20423;49.448;9.056;2022-10-19T03:31:52;10.20;99.90
34147;DHT22;20423;49.448;9.056;2022-10-19T03:34:18;10.20;99.90
34147;DHT22;20423;49.448;9.056;2022-10-19T03:36:44;10.20;99.90
34147;DHT22;20423;49.448;9.056;2022-10-19T03:39:11;10.20;99.90
34147;DHT22;20423;49.448;9.056;2022-10-19T03:41:38;10.20;99.90
34147;DHT22;20423;49.448;9.056;2022-10-19T03:44:05;10.30;99.90
34147;DHT22;20423;49.448;9.056;2022-10-19T03:46:31;10.30;99.90
34147;DHT22;20423;49.448;9.056;2022-10-19T03:48:57;10.30;99.90
34147;DHT22;20423;49.448;9.056;2022-10-19T03:51:25;10.30;99.90
34147;DHT22;20423;49.448;9.056;2022-10-19T03:53:52;10.30;99.90
34147;DHT22;20423;49.448;9.056;2022-10-19T03:56:21;10.30;99.90
34147;DHT22;20423;49.448;9.056;2022-10-19T03:58:49;10.30;99.90
34147;DHT22;20423;49.448;9.056;2022-10-19T04:01:23;10.30;99.90
34147;DHT22;20423;49.448;9.056;2022-10-19T04:03:56;10.30;99.90
34147;DHT22;20423;49.448;9.056;2022-10-19T04:06:25;10.30;99.90
34147;DHT22;20423;49.448;9.056;2022-10-19T04:08:51;10.40;99.90
34147;DHT22;20423;49.448;9.056;2022-10-19T04:11:19;10.30;99.90
34147;DHT22;20423;49.448;9.056;2022-10-19T04:13:47;10.20;99.90
34147;DHT22;20423;49.448;9.056;2022-10-19T04:16:14;10.20;99.90
34147;DHT22;20423;49.448;9.056;2022-10-19T04:18:40;10.30;99.90
34147;DHT22;20423;49.448;9.056;2022-10-19T04:21:06;10.20;99.90
34147;DHT22;20423;49.448;9.056;2022-10-19T04:23:35;10.10;99.90
34147;DHT22;20423;49.448;9.056;2022-10-19T04:26:06;10.20;99.90
34147;DHT22;20423;49.448;9.056;2022-10-19T04:28:32;10.20;99.90
34147;DHT22;20423;49.448;9.056;2022-10-19T04:31:02;10.30;99.90
34147;DHT22;20423;49.448;9.056;2022-10-19T04:33:28;10.30;99.90
34147;DHT22;20423;49.448;9.056;2022-10-19T04:36:01;10.30;99.90
34147;DHT22;20423;49.448;9.056;2022-10-19T04:38:28;10.40;99.90
34147;DHT22;20423;49.448;9.056;2022-10-19T04:40:54;10.30;99.90
34147;DHT22;20423;49.448;9.056;2022-10-19T04:43:20;10.30;99.90
34147;DHT22;20423;49.448;9.056;2022-10-19T04:45:46;10.20;99.90
34147;DHT22;20423;49.448;9.056;2022-10-19T04:48:12;10.20;99.90
34147;DHT22;20423;49.448;9.056;2022-10-19T04:50:37;10.20;99.90
34147;DHT22;20423;49.448;9.056;2022-10-19T04:53:03;10.20;99.90
34147;DHT22;20423;49.448;9.056;2022-10-19T04:55:29;10.20;99.90
34147;DHT22;20423;49.448;9.056;2022-10-19T04:57:54;10.20;99.90
34147;DHT22;20423;49.448;9.056;2022-10-19T05:00:20;10.10;99.90
34147;DHT22;20423;49.448;9.056;2022-10-19T05:02:46;10.10;99.90
34147;DHT22;20423;49.448;9.056;2022-10-19T05:05:13;10.10;99.90
34147;DHT22;20423;49.448;9.056;2022-10-19T05:07:39;10.10;99.90
34147;DHT22;20423;49.448;9.056;2022-10-19T05:10:05;10.20;99.90
34147;DHT22;20423;49.448;9.056;2022-10-19T05:12:31;10.10;99.90
34147;DHT22;20423;49.448;9.056;2022-10-19T05:14:57;10.00;99.90
34147;DHT22;20423;49.448;9.056;2022-10-19T05:17:22;9.90;99.90
34147;DHT22;20423;49.448;9.056;2022-10-19T05:19:48;10.00;99.90
34147;DHT22;20423;49.448;9.056;2022-10-19T05:22:13;10.00;99.90
34147;DHT22;20423;49.448;9.056;2022-10-19T05:24:39;10.00;99.90
34147;DHT22;20423;49.448;9.056;2022-10-19T05:27:05;10.00;99.90
34147;DHT22;20423;49.448;9.056;2022-10-19T05:35:49;10.10;99.90
34147;DHT22;20423;49.448;9.056;2022-10-19T05:38:15;10.10;99.90
34147;DHT22;20423;49.448;9.056;2022-10-19T05:40:45;10.10;99.90
34147;DHT22;20423;49.448;9.056;2022-10-19T05:43:11;10.10;99.90
34147;DHT22;20423;49.448;9.056;2022-10-19T05:45:36;10.10;99.90
34147;DHT22;20423;49.448;9.056;2022-10-19T05:48:02;10.00;99.90
34147;DHT22;20423;49.448;9.056;2022-10-19T05:50:28;10.00;99.90
34147;DHT22;20423;49.448;9.056;2022-10-19T05:52:53;9.90;99.90
34147;DHT22;20423;49.448;9.056;2022-10-19T05:55:19;9.80;99.90
34147;DHT22;20423;49.448;9.056;2022-10-19T05:58:03;9.70;99.90
34147;DHT22;20423;49.448;9.056;2022-10-19T06:00:29;9.60;99.90
34147;DHT22;20423;49.448;9.056;2022-10-19T06:02:54;9.60;99.90
34147;DHT22;20423;49.448;9.056;2022-10-19T06:05:20;9.60;99.90
34147;DHT22;20423;49.448;9.056;2022-10-19T06:07:46;9.70;99.90
34147;DHT22;20423;49.448;9.056;2022-10-19T06:10:11;9.70;99.90
34147;DHT22;20423;49.448;9.056;2022-10-19T06:12:37;9.70;99.90
34147;DHT22;20423;49.448;9.056;2022-10-19T06:15:03;9.80;99.90
34147;DHT22;20423;49.448;9.056;2022-10-19T06:17:28;9.90;99.90
34147;DHT22;20423;49.448;9.056;2022-10-19T06:19:54;10.00;99.90
34147;DHT22;20423;49.448;9.056;2022-10-19T06:22:20;10.10;99.90
34147;DHT22;20423;49.448;9.056;2022-10-19T06:24:46;10.20;99.90
34147;DHT22;20423;49.448;9.056;2022-10-19T06:27:11;10.20;99.90
34147;DHT22;20423;49.448;9.056;2022-10-19T06:29:37;10.30;99.90
34147;DHT22;20423;49.448;9.056;2022-10-19T06:32:21;10.50;99.90
34147;DHT22;20423;49.448;9.056;2022-10-19T06:34:47;10.50;99.90
34147;DHT22;20423;49.448;9.056;2022-10-19T06:37:12;10.50;99.90
34147;DHT22;20423;49.448;9.056;2022-10-19T06:39:38;10.50;99.90
34147;DHT22;20423;49.448;9.056;2022-10-19T06:42:04;10.40;99.90
34147;DHT22;20423;49.448;9.056;2022-10-19T06:44:29;10.40;99.90
34147;DHT22;20423;49.448;9.056;2022-10-19T06:46:55;10.50;99.90
34147;DHT22;20423;49.448;9.056;2022-10-19T06:49:20;10.40;99.90
34147;DHT22;20423;49.448;9.056;2022-10-19T06:51:46;10.40;99.90
34147;DHT22;20423;49.448;9.056;2022-10-19T06:54:12;10.40;99.90
34147;DHT22;20423;49.448;9.056;2022-10-19T06:56:37;10.40;99.90
34147;DHT22;20423;49.448;9.056;2022-10-19T06:59:03;10.30;99.90
34147;DHT22;20423;49.448;9.056;2022-10-19T07:01:29;10.30;99.90
34147;DHT22;20423;49.448;9.056;2022-10-19T07:03:55;10.20;99.90
34147;DHT22;20423;49.448;9.056;2022-10-19T07:06:20;10.30;99.90
34147;DHT22;20423;49.448;9.056;2022-10-19T07:08:46;10.50;99.90
34147;DHT22;20423;49.448;9.056;2022-10-19T07:11:17;10.60;99.90
34147;DHT22;20423;49.448;9.056;2022-10-19T07:13:43;10.70;99.90
34147;DHT22;20423;49.448;9.056;2022-10-19T07:16:11;10.90;99.90
34147;DHT22;20423;49.448;9.056;2022-10-19T07:18:38;10.90;99.90
34147;DHT22;20423;49.448;9.056;2022-10-19T07:24:59;11.10;99.90
34147;DHT22;20423;49.448;9.056;2022-10-19T07:27:24;11.30;99.90
34147;DHT22;20423;49.448;9.056;2022-10-19T07:29:50;11.50;99.90
34147;DHT22;20423;49.448;9.056;2022-10-19T07:32:16;11.70;99.90
34147;DHT22;20423;49.448;9.056;2022-10-19T07:34:41;11.80;99.90
34147;DHT22;20423;49.448;9.056;2022-10-19T07:37:16;12.00;99.90
34147;DHT22;20423;49.448;9.056;2022-10-19T07:39:42;12.10;99.90
34147;DHT22;20423;49.448;9.056;2022-10-19T07:42:07;12.20;99.90
34147;DHT22;20423;49.448;9.056;2022-10-19T07:44:33;12.30;99.90
34147;DHT22;20423;49.448;9.056;2022-10-19T07:46:59;12.60;99.90
34147;DHT22;20423;49.448;9.056;2022-10-19T07:49:24;12.90;99.90
34147;DHT22;20423;49.448;9.056;2022-10-19T07:51:50;13.00;99.90
34147;DHT22;20423;49.448;9.056;2022-10-19T07:54:18;13.00;99.90
34147;DHT22;20423;49.448;9.056;2022-10-19T07:56:44;13.20;99.90
34147;DHT22;20423;49.448;9.056;2022-10-19T07:59:10;13.00;99.90
34147;DHT22;20423;49.448;9.056;2022-10-19T08:01:39;12.90;99.90
34147;DHT22;20423;49.448;9.056;2022-10-19T08:04:06;12.70;99.90
34147;DHT22;20423;49.448;9.056;2022-10-19T08:06:31;12.70;99.90
34147;DHT22;20423;49.448;9.056;2022-10-19T08:09:03;12.60;99.90
34147;DHT22;20423;49.448;9.056;2022-10-19T08:11:33;12.50;99.90
34147;DHT22;20423;49.448;9.056;2022-10-19T08:14:00;12.60;99.90
34147;DHT22;20423;49.448;9.056;2022-10-19T08:16:38;12.70;99.90
34147;DHT22;20423;49.448;9.056;2022-10-19T08:19:14;12.80;99.90
34147;DHT22;20423;49.448;9.056;2022-10-19T08:21:42;12.80;99.90
34147;DHT22;20423;49.448;9.056;2022-10-19T08:24:09;12.80;99.90
34147;DHT22;20423;49.448;9.056;2022-10-19T08:26:36;12.80;99.90
34147;DHT22;20423;49.448;9.056;2022-10-19T08:29:05;12.90;99.90
34147;DHT22;20423;49.448;9.056;2022-10-19T08:31:31;13.10;99.90
34147;DHT22;20423;49.448;9.056;2022-10-19T08:33:57;13.40;99.90
34147;DHT22;20423;49.448;9.056;2022-10-19T08:36:23;13.60;99.90
34147;DHT22;20423;49.448;9.056;2022-10-19T08:38:49;13.70;99.90
34147;DHT22;20423;49.448;9.056;2022-10-19T08:49:18;14.20;99.90
34147;DHT22;20423;49.448;9.056;2022-10-19T08:51:51;14.30;99.90
34147;DHT22;20423;49.448;9.056;2022-10-19T08:54:18;14.70;99.90
34147;DHT22;20423;49.448;9.056;2022-10-19T08:56:59;14.60;99.90
34147;DHT22;20423;49.448;9.056;2022-10-19T09:02:21;14.50;99.90
34147;DHT22;20423;49.448;9.056;2022-10-19T09:04:58;14.80;99.90
34147;DHT22;20423;49.448;9.056;2022-10-19T09:07:28;14.80;99.90
34147;DHT22;20423;49.448;9.056;2022-10-19T09:13:02;14.40;99.90
34147;DHT22;20423;49.448;9.056;2022-10-19T09:15:42;14.70;99.90
34147;DHT22;20423;49.448;9.056;2022-10-19T09:18:28;14.80;99.90
34147;DHT22;20423;49.448;9.056;2022-10-19T09:24:21;15.50;99.90
34147;DHT22;20423;49.448;9.056;2022-10-19T09:27:01;15.70;99.90
34147;DHT22;20423;49.448;9.056;2022-10-19T09:29:37;15.60;99.90
34147;DHT22;20423;49.448;9.056;2022-10-19T09:32:11;15.40;99.90
34147;DHT22;20423;49.448;9.056;2022-10-19T09:35:04;15.70;99.90
34147;DHT22;20423;49.448;9.056;2022-10-19T09:37:36;15.80;99.90
34147;DHT22;20423;49.448;9.056;2022-10-19T09:40:05;15.90;99.90
34147;DHT22;20423;49.448;9.056;2022-10-19T09:42:32;15.90;99.90
34147;DHT22;20423;49.448;9.056;2022-10-19T09:45:00;16.00;99.90
34147;DHT22;20423;49.448;9.056;2022-10-19T09:47:36;15.70;99.90
34147;DHT22;20423;49.448;9.056;2022-10-19T09:50:24;15.30;99.90
34147;DHT22;20423;49.448;9.056;2022-10-19T09:52:55;15.30;99.90
34147;DHT22;20423;49.448;9.056;2022-10-19T09:55:26;15.00;99.90
34147;DHT22;20423;49.448;9.056;2022-10-19T09:58:09;14.80;99.90
34147;DHT22;20423;49.448;9.056;2022-10-19T10:00:44;14.60;99.90
34147;DHT22;20423;49.448;9.056;2022-10-19T10:03:36;14.50;99.90
34147;DHT22;20423;49.448;9.056;2022-10-19T10:06:13;14.70;99.90
34147;DHT22;20423;49.448;9.056;2022-10-19T10:08:50;14.80;99.90
34147;DHT22;20423;49.448;9.056;2022-10-19T10:11:43;14.90;99.90
34147;DHT22;20423;49.448;9.056;2022-10-19T10:14:30;15.30;99.90
34147;DHT22;20423;49.448;9.056;2022-10-19T10:17:04;15.40;99.90
34147;DHT22;20423;49.448;9.056;2022-10-19T10:19:32;15.50;99.90
34147;DHT22;20423;49.448;9.056;2022-10-19T10:22:23;15.30;99.90
34147;DHT22;20423;49.448;9.056;2022-10-19T10:24:53;15.10;99.90
34147;DHT22;20423;49.448;9.056;2022-10-19T10:29:55;15.20;99.90
34147;DHT22;20423;49.448;9.056;2022-10-19T10:32:21;14.90;99.90
34147;DHT22;20423;49.448;9.056;2022-10-19T10:35:15;14.90;99.90
34147;DHT22;20423;49.448;9.056;2022-10-19T10:37:46;14.70;99.90
34147;DHT22;20423;49.448;9.056;2022-10-19T10:40:29;14.60;99.90
34147;DHT22;20423;49.448;9.056;2022-10-19T10:43:07;14.50;99.90
34147;DHT22;20423;49.448;9.056;2022-10-19T10:45:40;14.30;99.90
34147;DHT22;20423;49.448;9.056;2022-10-19T10:50:51;14.10;99.90
34147;DHT22;20423;49.448;9.056;2022-10-19T10:53:37;14.00;99.90
34147;DHT22;20423;49.448;9.056;2022-10-19T10:56:04;14.00;99.90
34147;DHT22;20423;49.448;9.056;2022-10-19T10:58:51;14.20;99.90
34147;DHT22;20423;49.448;9.056;2022-10-19T11:01:22;14.40;99.90
34147;DHT22;20423;49.448;9.056;2022-10-19T11:03:56;14.40;99.90
34147;DHT22;20423;49.448;9.056;2022-10-19T11:06:24;14.30;99.90
34147;DHT22;20423;49.448;9.056;2022-10-19T11:08:55;14.50;99.90
34147;DHT22;20423;49.448;9.056;2022-10-19T11:11:39;14.50;99.90
34147;DHT22;20423;49.448;9.056;2022-10-19T11:14:24;14.50;99.90
34147;DHT22;20423;49.448;9.056;2022-10-19T11:16:52;14.40;99.90
34147;DHT22;20423;49.448;9.056;2022-10-19T11:19:20;14.30;99.90
34147;DHT22;20423;49.448;9.056;2022-10-19T11:24:38;14.60;99.90
34147;DHT22;20423;49.448;9.056;2022-10-19T11:30:02;15.00;99.90
34147;DHT22;20423;49.448;9.056;2022-10-19T11:34:58;14.50;99.90
34147;DHT22;20423;49.448;9.056;2022-10-19T11:40:20;14.40;99.90
34147;DHT22;20423;49.448;9.056;2022-10-19T11:51:05;14.20;99.90
34147;DHT22;20423;49.448;9.056;2022-10-19T12:02:30;15.10;99.90
34147;DHT22;20423;49.448;9.056;2022-10-19T12:13:49;14.90;99.90
34147;DHT22;20423;49.448;9.056;2022-10-19T12:16:17;15.10;99.90
34147;DHT22;20423;49.448;9.056;2022-10-19T12:18:51;15.20;99.90
34147;DHT22;20423;49.448;9.056;2022-10-19T12:21:23;15.20;99.90
34147;DHT22;20423;49.448;9.056;2022-10-19T12:23:50;15.30;99.90
34147;DHT22;20423;49.448;9.056;2022-10-19T12:26:20;15.10;99.90
34147;DHT22;20423;49.448;9.056;2022-10-19T12:29:09;14.90;99.90
34147;DHT22;20423;49.448;9.056;2022-10-19T12:31:36;14.60;99.90
34147;DHT22;20423;49.448;9.056;2022-10-19T12:34:12;14.70;99.90
34147;DHT22;20423;49.448;9.056;2022-10-19T12:36:47;14.60;99.90
34147;DHT22;20423;49.448;9.056;2022-10-19T12:39:40;14.40;99.90
34147;DHT22;20423;49.448;9.056;2022-10-19T12:42:12;14.30;99.90
34147;DHT22;20423;49.448;9.056;2022-10-19T12:53:42;14.60;99.90
34147;DHT22;20423;49.448;9.056;2022-10-19T13:01:07;14.50;99.90
34147;DHT22;20423;49.448;9.056;2022-10-19T13:03:36;14.40;99.90
34147;DHT22;20423;49.448;9.056;2022-10-19T13:06:30;14.00;99.90
34147;DHT22;20423;49.448;9.056;2022-10-19T13:09:03;14.10;99.90
34147;DHT22;20423;49.448;9.056;2022-10-19T13:11:30;14.00;99.90
34147;DHT22;20423;49.448;9.056;2022-10-19T13:13:56;13.70;99.90
34147;DHT22;20423;49.448;9.056;2022-10-19T13:19:16;13.50;99.90
34147;DHT22;20423;49.448;9.056;2022-10-19T13:22:22;13.20;99.90
34147;DHT22;20423;49.448;9.056;2022-10-19T13:27:43;13.20;99.90
34147;DHT22;20423;49.448;9.056;2022-10-19T13:38:35;13.10;99.90
34147;DHT22;20423;49.448;9.056;2022-10-19T13:41:15;13.10;99.90
34147;DHT22;20423;49.448;9.056;2022-10-19T13:46:13;13.40;99.90
34147;DHT22;20423;49.448;9.056;2022-10-19T13:48:54;13.50;99.90
34147;DHT22;20423;49.448;9.056;2022-10-19T13:56:57;13.90;99.90
34147;DHT22;20423;49.448;9.056;2022-10-19T14:09:03;14.20;99.90
34147;DHT22;20423;49.448;9.056;2022-10-19T14:11:37;14.20;99.90
34147;DHT22;20423;49.448;9.056;2022-10-19T14:16:59;14.20;99.90
34147;DHT22;20423;49.448;9.056;2022-10-19T14:19:32;14.40;99.90
34147;DHT22;20423;49.448;9.056;2022-10-19T14:22:29;14.30;99.90
34147;DHT22;20423;49.448;9.056;2022-10-19T14:25:21;14.10;99.90
34147;DHT22;20423;49.448;9.056;2022-10-19T14:27:53;14.10;99.90
34147;DHT22;20423;49.448;9.056;2022-10-19T14:30:26;14.00;99.90
34147;DHT22;20423;49.448;9.056;2022-10-19T14:32:53;13.70;99.90
34147;DHT22;20423;49.448;9.056;2022-10-19T14:35:40;13.70;99.90
34147;DHT22;20423;49.448;9.056;2022-10-19T14:40:50;13.50;99.90
34147;DHT22;20423;49.448;9.056;2022-10-19T14:43:29;13.30;99.90
34147;DHT22;20423;49.448;9.056;2022-10-19T14:48:32;13.10;99.90
34147;DHT22;20423;49.448;9.056;2022-10-19T14:50:58;13.00;99.90
34147;DHT22;20423;49.448;9.056;2022-10-19T14:53:48;13.00;99.90
34147;DHT22;20423;49.448;9.056;2022-10-19T14:56:50;13.00;99.90
34147;DHT22;20423;49.448;9.056;2022-10-19T15:01:53;12.90;99.90
34147;DHT22;20423;49.448;9.056;2022-10-19T15:04:25;12.80;99.90
34147;DHT22;20423;49.448;9.056;2022-10-19T15:06:52;12.60;99.90
34147;DHT22;20423;49.448;9.056;2022-10-19T15:12:37;12.50;99.90
34147;DHT22;20423;49.448;9.056;2022-10-19T15:15:25;12.40;99.90
34147;DHT22;20423;49.448;9.056;2022-10-19T15:20:37;12.10;99.90
34147;DHT22;20423;49.448;9.056;2022-10-19T15:23:31;12.00;99.90
34147;DHT22;20423;49.448;9.056;2022-10-19T15:25:59;11.90;99.90
34147;DHT22;20423;49.448;9.056;2022-10-19T15:28:49;11.90;99.90
34147;DHT22;20423;49.448;9.056;2022-10-19T15:31:22;11.90;99.90
34147;DHT22;20423;49.448;9.056;2022-10-19T15:33:51;11.80;99.90
34147;DHT22;20423;49.448;9.056;2022-10-19T15:36:18;11.80;99.90
34147;DHT22;20423;49.448;9.056;2022-10-19T15:41:29;11.70;99.90
34147;DHT22;20423;49.448;9.056;2022-10-19T15:43:57;11.60;99.90
34147;DHT22;20423;49.448;9.056;2022-10-19T15:51:46;11.50;99.90
34147;DHT22;20423;49.448;9.056;2022-10-19T15:54:13;11.40;99.90
34147;DHT22;20423;49.448;9.056;2022-10-19T15:56:46;11.40;99.90
34147;DHT22;20423;49.448;9.056;2022-10-19T15:59:20;11.40;99.90
34147;DHT22;20423;49.448;9.056;2022-10-19T16:01:46;11.20;99.90
34147;DHT22;20423;49.448;9.056;2022-10-19T16:04:15;11.20;99.90
34147;DHT22;20423;49.448;9.056;2022-10-19T16:06:47;11.10;99.90
34147;DHT22;20423;49.448;9.056;2022-10-19T16:09:21;11.10;99.90
34147;DHT22;20423;49.448;9.056;2022-10-19T16:11:47;11.00;99.90
34147;DHT22;20423;49.448;9.056;2022-10-19T16:14:47;11.00;99.90
34147;DHT22;20423;49.448;9.056;2022-10-19T16:17:13;11.00;99.90
34147;DHT22;20423;49.448;9.056;2022-10-19T16:20:16;10.90;99.90
34147;DHT22;20423;49.448;9.056;2022-10-19T16:22:43;10.90;99.90
34147;DHT22;20423;49.448;9.056;2022-10-19T16:25:10;10.80;99.90
34147;DHT22;20423;49.448;9.056;2022-10-19T16:27:36;10.70;99.90
34147;DHT22;20423;49.448;9.056;2022-10-19T16:30:02;10.70;99.90
34147;DHT22;20423;49.448;9.056;2022-10-19T16:32:28;10.70;99.90
34147;DHT22;20423;49.448;9.056;2022-10-19T16:34:54;10.60;99.90
34147;DHT22;20423;49.448;9.056;2022-10-19T16:37:19;10.50;99.90
34147;DHT22;20423;49.448;9.056;2022-10-19T16:39:45;10.50;99.90
34147;DHT22;20423;49.448;9.056;2022-10-19T16:42:11;10.40;99.90
34147;DHT22;20423;49.448;9.056;2022-10-19T16:44:36;10.40;99.90
34147;DHT22;20423;49.448;9.056;2022-10-19T16:47:02;10.40;99.90
34147;DHT22;20423;49.448;9.056;2022-10-19T16:49:28;10.30;99.90
34147;DHT22;20423;49.448;9.056;2022-10-19T16:51:54;10.30;99.90
34147;DHT22;20423;49.448;9.056;2022-10-19T16:54:19;10.30;99.90
34147;DHT22;20423;49.448;9.056;2022-10-19T16:56:46;10.30;99.90
34147;DHT22;20423;49.448;9.056;2022-10-19T16:59:16;10.30;99.90
34147;DHT22;20423;49.448;9.056;2022-10-19T17:02:13;10.30;99.90
34147;DHT22;20423;49.448;9.056;2022-10-19T17:04:38;10.30;99.90
34147;DHT22;20423;49.448;9.056;2022-10-19T17:07:04;10.40;99.90
34147;DHT22;20423;49.448;9.056;2022-10-19T17:09:30;10.30;99.90
34147;DHT22;20423;49.448;9.056;2022-10-19T17:11:56;10.30;99.90
34147;DHT22;20423;49.448;9.056;2022-10-19T17:14:21;10.40;99.90
34147;DHT22;20423;49.448;9.056;2022-10-19T17:16:47;10.40;99.90
34147;DHT22;20423;49.448;9.056;2022-10-19T17:19:13;10.40;99.90
34147;DHT22;20423;49.448;9.056;2022-10-19T17:21:38;10.40;99.90
34147;DHT22;20423;49.448;9.056;2022-10-19T17:24:11;10.40;99.90
34147;DHT22;20423;49.448;9.056;2022-10-19T17:26:39;10.40;99.90
34147;DHT22;20423;49.448;9.056;2022-10-19T17:29:07;10.50;99.90
34147;DHT22;20423;49.448;9.056;2022-10-19T17:31:37;10.40;99.90
34147;DHT22;20423;49.448;9.056;2022-10-19T17:34:03;10.40;99.90
34147;DHT22;20423;49.448;9.056;2022-10-19T17:36:31;10.30;99.90
34147;DHT22;20423;49.448;9.056;2022-10-19T17:38:59;10.20;99.90
34147;DHT22;20423;49.448;9.056;2022-10-19T17:41:32;10.10;99.90
34147;DHT22;20423;49.448;9.056;2022-10-19T17:43:58;10.10;99.90
34147;DHT22;20423;49.448;9.056;2022-10-19T17:50:10;10.00;99.90
34147;DHT22;20423;49.448;9.056;2022-10-19T17:52:36;10.00;99.90
34147;DHT22;20423;49.448;9.056;2022-10-19T17:55:02;10.00;99.90
34147;DHT22;20423;49.448;9.056;2022-10-19T17:57:27;10.00;99.90
34147;DHT22;20423;49.448;9.056;2022-10-19T17:59:53;10.00;99.90
34147;DHT22;20423;49.448;9.056;2022-10-19T18:02:19;9.90;99.90
34147;DHT22;20423;49.448;9.056;2022-10-19T18:04:45;10.00;99.90
34147;DHT22;20423;49.448;9.056;2022-10-19T18:07:10;9.90;99.90
34147;DHT22;20423;49.448;9.056;2022-10-19T18:09:36;10.00;99.90
34147;DHT22;20423;49.448;9.056;2022-10-19T18:12:02;10.00;99.90
34147;DHT22;20423;49.448;9.056;2022-10-19T18:14:28;10.00;99.90
34147;DHT22;20423;49.448;9.056;2022-10-19T18:16:53;10.00;99.90
34147;DHT22;20423;49.448;9.056;2022-10-19T18:19:19;10.00;99.90
34147;DHT22;20423;49.448;9.056;2022-10-19T18:21:46;9.90;99.90
34147;DHT22;20423;49.448;9.056;2022-10-19T18:24:14;9.90;99.90
34147;DHT22;20423;49.448;9.056;2022-10-19T18:26:45;9.90;99.90
34147;DHT22;20423;49.448;9.056;2022-10-19T18:32:14;9.90;99.90
34147;DHT22;20423;49.448;9.056;2022-10-19T18:34:40;9.90;99.90
34147;DHT22;20423;49.448;9.056;2022-10-19T18:37:06;10.00;99.90
34147;DHT22;20423;49.448;9.056;2022-10-19T18:39:32;10.00;99.90
34147;DHT22;20423;49.448;9.056;2022-10-19T18:42:31;10.00;99.90
34147;DHT22;20423;49.448;9.056;2022-10-19T18:44:57;10.00;99.90
34147;DHT22;20423;49.448;9.056;2022-10-19T18:47:23;10.00;99.90
34147;DHT22;20423;49.448;9.056;2022-10-19T18:49:48;10.00;99.90
34147;DHT22;20423;49.448;9.056;2022-10-19T18:52:14;10.10;99.90
34147;DHT22;20423;49.448;9.056;2022-10-19T18:54:40;10.00;99.90